Time;durP1;ratioP1;P1;durP2;ratioP2;P2;SDS_P1;SDS_P2;PMS_P1;PMS_P2;Temp;Humidity;BMP_temperature;BMP_pressure;BME280_temperature;BME280_humidity;BME280_pressure;Samples;Min_cycle;Max_cycle;Signal;HPM_P1;HPM_P2
2022/09/04 00:00:17;;;;;;;9.23;6.90;;;13.70;99.90;;;;;;4933612;29;20200;-79
2022/09/04 00:03:03;;;;;;;7.50;6.85;;;13.50;99.90;;;;;;4941101;29;20404;-83
2022/09/04 00:05:45;;;;;;;7.93;5.80;;;13.60;99.90;;;;;;4937901;29;20411;-82
2022/09/04 00:08:33;;;;;;;8.27;6.07;;;13.70;99.90;;;;;;4926021;29;20199;-84
2022/09/04 00:11:03;;;;;;;11.63;6.25;;;13.50;99.90;;;;;;4930265;29;20212;-82
2022/09/04 00:14:01;;;;;;;7.82;7.03;;;13.60;99.90;;;;;;4925701;29;20217;-82
2022/09/04 00:16:49;;;;;;;7.40;6.53;;;13.40;99.90;;;;;;4923768;29;20246;-80
2022/09/04 00:19:42;;;;;;;7.95;7.03;;;13.60;99.90;;;;;;4919828;29;20353;-81
2022/09/04 00:22:29;;;;;;;8.23;6.45;;;13.50;99.90;;;;;;4933187;29;20219;-84
2022/09/04 00:25:22;;;;;;;7.57;6.07;;;13.50;99.90;;;;;;4927414;29;20207;-81
2022/09/04 00:27:57;;;;;;;6.90;6.00;;;13.50;99.90;;;;;;4925395;29;20220;-85
2022/09/04 00:30:25;;;;;;;6.53;5.95;;;13.40;99.90;;;;;;4938284;29;20210;-81
2022/09/04 00:33:29;;;;;;;7.28;6.68;;;13.40;99.90;;;;;;4929431;29;20201;-82
2022/09/04 00:36:01;;;;;;;12.60;8.00;;;13.50;99.90;;;;;;4922080;29;20303;-83
2022/09/04 00:38:35;;;;;;;12.55;7.45;;;13.40;99.90;;;;;;4916628;29;20240;-81
2022/09/04 00:41:31;;;;;;;10.40;7.43;;;13.40;99.90;;;;;;4927971;29;20372;-81
2022/09/04 00:44:06;;;;;;;7.38;6.75;;;13.30;99.90;;;;;;4917282;29;20234;-81
2022/09/04 00:47:04;;;;;;;8.73;7.70;;;13.40;99.90;;;;;;4929423;29;20224;-82
2022/09/04 00:49:44;;;;;;;11.68;8.85;;;13.40;99.90;;;;;;4929659;29;20223;-80
2022/09/04 00:52:29;;;;;;;10.88;8.60;;;13.40;99.90;;;;;;4929778;29;20211;-81
2022/09/04 00:55:37;;;;;;;9.73;8.70;;;13.20;99.90;;;;;;4930947;29;20228;-79
2022/09/04 00:58:16;;;;;;;7.90;7.10;;;13.10;99.90;;;;;;4927821;29;20253;-82
2022/09/04 01:00:46;;;;;;;7.47;6.80;;;13.10;99.90;;;;;;4934677;29;20562;-82
2022/09/04 01:03:38;;;;;;;8.07;7.28;;;13.20;99.90;;;;;;4920154;29;20232;-79
2022/09/04 01:06:17;;;;;;;7.97;6.65;;;13.30;99.90;;;;;;4952519;29;20196;-81
2022/09/04 01:09:31;;;;;;;8.85;8.05;;;13.40;99.90;;;;;;4935079;29;20504;-81
2022/09/04 01:12:19;;;;;;;7.72;6.93;;;13.30;99.90;;;;;;4929022;29;20385;-82
2022/09/04 01:15:13;;;;;;;8.65;7.75;;;13.20;99.90;;;;;;4937822;29;20230;-83
2022/09/04 01:18:15;;;;;;;7.38;6.53;;;13.40;99.90;;;;;;4935551;29;20598;-82
2022/09/04 01:21:22;;;;;;;7.90;7.10;;;13.30;99.90;;;;;;4928068;29;20309;-80
2022/09/04 01:23:55;;;;;;;6.47;5.88;;;13.20;99.90;;;;;;4931709;29;20226;-81
2022/09/04 01:26:33;;;;;;;12.23;6.50;;;13.10;99.90;;;;;;4930400;29;20219;-77
2022/09/04 01:29:09;;;;;;;6.75;6.05;;;13.10;99.90;;;;;;4934002;29;20205;-84
2022/09/04 01:32:00;;;;;;;8.05;7.30;;;13.10;99.90;;;;;;4930937;29;20549;-83
2022/09/04 01:34:40;;;;;;;7.10;6.40;;;13.00;99.90;;;;;;4930905;29;20236;-80
2022/09/04 01:37:41;;;;;;;7.97;6.55;;;13.10;99.90;;;;;;4915509;29;20240;-80
2022/09/04 01:40:22;;;;;;;7.60;6.90;;;12.90;99.90;;;;;;4928813;29;20207;-81
2022/09/04 01:43:10;;;;;;;6.85;6.15;;;12.80;99.90;;;;;;4932815;29;20228;-83
2022/09/04 01:45:45;;;;;;;7.10;6.43;;;12.90;99.90;;;;;;4945951;29;20188;-79
2022/09/04 01:48:20;;;;;;;9.25;6.32;;;12.80;99.90;;;;;;4937980;29;20243;-81
2022/09/04 01:50:53;;;;;;;8.75;7.50;;;12.70;99.90;;;;;;4939151;29;20229;-83
2022/09/04 01:53:24;;;;;;;8.52;7.72;;;12.90;99.90;;;;;;4935418;29;20516;-80
2022/09/04 01:56:15;;;;;;;7.72;6.53;;;12.80;99.90;;;;;;4928095;29;20208;-82
2022/09/04 01:59:14;;;;;;;9.30;8.27;;;12.60;99.90;;;;;;4939111;29;20214;-82
2022/09/04 02:01:53;;;;;;;9.00;7.10;;;12.80;99.90;;;;;;4928867;29;20233;-81
2022/09/04 02:04:47;;;;;;;7.85;6.90;;;12.80;99.90;;;;;;4922459;29;20211;-81
2022/09/04 02:07:23;;;;;;;6.88;6.18;;;12.70;99.90;;;;;;4934320;29;20215;-79
2022/09/04 02:10:12;;;;;;;8.60;7.45;;;12.80;99.90;;;;;;4926532;29;20486;-80
2022/09/04 02:13:12;;;;;;;7.32;6.43;;;12.90;99.90;;;;;;4922283;29;20207;-81
2022/09/04 02:16:08;;;;;;;8.50;7.40;;;12.70;99.90;;;;;;4921607;29;20322;-80
2022/09/04 02:19:01;;;;;;;6.95;6.25;;;12.70;99.90;;;;;;4951155;29;20261;-80
2022/09/04 02:21:39;;;;;;;8.80;7.68;;;12.70;99.90;;;;;;4946491;29;20222;-80
2022/09/04 02:24:28;;;;;;;9.20;7.85;;;12.80;99.90;;;;;;4938137;29;20203;-78
2022/09/04 02:27:16;;;;;;;9.48;8.00;;;12.60;99.90;;;;;;4932786;29;20203;-82
2022/09/04 02:30:15;;;;;;;9.75;8.15;;;12.60;99.90;;;;;;4932377;29;20221;-79
2022/09/04 02:33:06;;;;;;;8.98;7.95;;;12.50;99.90;;;;;;4923598;29;20227;-80
2022/09/04 02:36:01;;;;;;;10.02;7.85;;;12.60;99.90;;;;;;4922900;29;20204;-80
2022/09/04 02:38:55;;;;;;;10.48;7.95;;;12.60;99.90;;;;;;4936085;29;20731;-79
2022/09/04 02:41:32;;;;;;;10.63;7.10;;;12.60;99.90;;;;;;4925572;29;20307;-79
2022/09/04 02:44:25;;;;;;;7.68;6.97;;;12.60;99.90;;;;;;4924044;29;20471;-84
2022/09/04 02:47:10;;;;;;;9.98;7.50;;;12.70;99.90;;;;;;4920093;29;20200;-81
2022/09/04 02:50:01;;;;;;;9.60;8.27;;;12.60;99.90;;;;;;4940613;29;20247;-80
2022/09/04 02:52:41;;;;;;;8.43;7.10;;;12.40;99.90;;;;;;4933771;29;20222;-79
2022/09/04 02:55:43;;;;;;;10.10;8.15;;;12.30;99.90;;;;;;4939718;29;20636;-81
2022/09/04 02:58:25;;;;;;;9.30;7.68;;;12.20;99.90;;;;;;4932961;29;20296;-83
2022/09/04 03:01:05;;;;;;;10.50;8.45;;;12.30;99.90;;;;;;4925109;29;20204;-80
2022/09/04 03:03:39;;;;;;;8.48;7.65;;;12.50;99.90;;;;;;4939438;29;20211;-82
2022/09/04 03:06:42;;;;;;;7.38;6.70;;;12.40;99.90;;;;;;4936591;29;20301;-82
2022/09/04 03:09:15;;;;;;;7.28;6.60;;;12.30;99.90;;;;;;4947247;29;20193;-82
2022/09/04 03:12:09;;;;;;;8.65;7.47;;;12.30;99.90;;;;;;4951908;29;20196;-82
2022/09/04 03:14:47;;;;;;;9.75;7.85;;;12.40;99.90;;;;;;4915863;29;20212;-83
2022/09/04 03:17:22;;;;;;;8.88;7.72;;;12.10;99.90;;;;;;4935860;29;20235;-81
2022/09/04 03:19:55;;;;;;;10.07;8.85;;;12.10;99.90;;;;;;4931077;29;20269;-80
2022/09/04 03:22:56;;;;;;;10.68;8.50;;;12.10;99.90;;;;;;4953889;29;20271;-80
2022/09/04 03:25:45;;;;;;;9.20;7.45;;;12.10;99.90;;;;;;4928920;29;20221;-81
2022/09/04 03:28:32;;;;;;;9.27;8.27;;;12.10;99.90;;;;;;4934351;29;20655;-81
2022/09/04 03:31:12;;;;;;;8.63;7.82;;;12.20;99.90;;;;;;4935704;29;20203;-81
2022/09/04 03:33:47;;;;;;;7.85;7.15;;;12.00;99.90;;;;;;4938497;29;20211;-81
2022/09/04 03:36:32;;;;;;;6.85;6.35;;;12.00;99.90;;;;;;4927532;29;20218;-81
2022/09/04 03:39:16;;;;;;;9.20;8.30;;;12.00;99.90;;;;;;4930759;29;20241;-81
2022/09/04 03:42:21;;;;;;;9.73;8.60;;;11.90;99.90;;;;;;4936675;29;20813;-81
2022/09/04 03:45:13;;;;;;;9.15;8.25;;;11.90;99.90;;;;;;4930125;29;20213;-81
2022/09/04 03:48:04;;;;;;;7.50;6.72;;;12.00;99.90;;;;;;4944478;29;20217;-81
2022/09/04 03:50:43;;;;;;;8.25;7.15;;;12.10;99.90;;;;;;4918886;29;20478;-81
2022/09/04 03:53:34;;;;;;;9.10;8.20;;;12.00;99.90;;;;;;4924676;29;20563;-81
2022/09/04 03:56:31;;;;;;;9.63;7.30;;;12.00;99.90;;;;;;4933989;29;20294;-82
2022/09/04 03:59:07;;;;;;;8.10;7.32;;;12.00;99.90;;;;;;4934906;29;20435;-83
2022/09/04 04:01:51;;;;;;;11.95;6.95;;;12.00;99.90;;;;;;4938429;29;20230;-81
2022/09/04 04:04:33;;;;;;;8.07;7.32;;;12.00;99.90;;;;;;4941710;29;20216;-79
2022/09/04 04:07:22;;;;;;;9.10;7.95;;;11.90;99.90;;;;;;4939468;29;20250;-80
2022/09/04 04:10:01;;;;;;;8.05;7.25;;;11.90;99.90;;;;;;4935305;29;20219;-79
2022/09/04 04:13:07;;;;;;;9.10;8.02;;;11.80;99.90;;;;;;4931582;29;20216;-79
2022/09/04 04:15:56;;;;;;;8.13;7.43;;;11.80;99.90;;;;;;4935437;29;20215;-81
2022/09/04 04:18:46;;;;;;;8.60;7.35;;;11.80;99.90;;;;;;4934625;29;20543;-81
2022/09/04 04:21:55;;;;;;;7.60;6.65;;;11.80;99.90;;;;;;4935523;29;20222;-81
2022/09/04 04:24:28;;;;;;;7.40;6.70;;;11.90;99.90;;;;;;4926965;29;20219;-80
2022/09/04 04:27:20;;;;;;;9.43;7.90;;;12.00;99.90;;;;;;4936502;29;20238;-80
2022/09/04 04:30:06;;;;;;;8.77;7.93;;;12.10;99.90;;;;;;4922706;29;20204;-80
2022/09/04 04:32:51;;;;;;;9.73;7.63;;;12.00;99.90;;;;;;4935877;29;20208;-81
2022/09/04 04:35:38;;;;;;;7.78;6.97;;;12.00;99.90;;;;;;4928125;29;20212;-80
2022/09/04 04:38:46;;;;;;;7.75;7.13;;;12.00;99.90;;;;;;4933229;29;20825;-81
2022/09/04 04:42:02;;;;;;;12.05;8.50;;;12.00;99.90;;;;;;4926661;29;20238;-80
2022/09/04 04:45:48;;;;;;;8.25;7.10;;;12.00;99.90;;;;;;4936508;29;20221;-81
2022/09/04 04:47:26;;;;;;;13.68;7.63;;;12.10;99.90;;;;;;4929362;29;20466;-82
2022/09/04 04:50:20;;;;;;;13.77;7.57;;;12.20;99.90;;;;;;4930361;29;20389;-80
2022/09/04 04:53:23;;;;;;;9.55;7.30;;;12.20;99.90;;;;;;4932529;29;20232;-80
2022/09/04 04:55:54;;;;;;;8.32;7.22;;;12.30;99.90;;;;;;4932435;29;20215;-81
2022/09/04 04:58:53;;;;;;;7.85;7.05;;;12.40;99.90;;;;;;4929689;29;20275;-80
2022/09/04 05:01:42;;;;;;;8.80;7.40;;;12.30;99.90;;;;;;4921692;29;20204;-81
2022/09/04 05:04:33;;;;;;;8.30;7.50;;;12.40;99.90;;;;;;4923448;29;20266;-79
2022/09/04 05:07:11;;;;;;;7.55;6.43;;;12.50;99.90;;;;;;4929778;29;20246;-80
2022/09/04 05:10:19;;;;;;;7.72;6.88;;;12.60;99.90;;;;;;4944003;29;20211;-80
2022/09/04 05:13:06;;;;;;;7.97;7.25;;;12.70;99.90;;;;;;4918566;29;20303;-79
2022/09/04 05:15:44;;;;;;;8.25;7.55;;;12.80;99.90;;;;;;4935758;29;20208;-79
2022/09/04 05:18:44;;;;;;;7.55;6.85;;;12.90;99.90;;;;;;4936799;29;20576;-83
2022/09/04 05:21:26;;;;;;;6.72;5.53;;;13.10;99.90;;;;;;4943330;29;20240;-82
2022/09/04 05:24:16;;;;;;;6.05;5.43;;;13.20;99.90;;;;;;4943591;29;20208;-80
2022/09/04 05:26:55;;;;;;;7.63;6.43;;;13.30;99.90;;;;;;4943216;29;20569;-79
2022/09/04 05:29:50;;;;;;;9.43;5.50;;;13.40;99.90;;;;;;4917840;29;20215;-79
2022/09/04 05:32:34;;;;;;;8.60;6.35;;;13.40;99.90;;;;;;4930089;29;20213;-82
2022/09/04 05:35:30;;;;;;;7.53;6.38;;;13.60;99.90;;;;;;4934836;29;20204;-80
2022/09/04 05:38:22;;;;;;;7.60;5.90;;;13.60;99.90;;;;;;4927708;29;20237;-77
2022/09/04 05:41:05;;;;;;;9.85;7.95;;;13.60;99.90;;;;;;4937614;29;20211;-80
2022/09/04 05:43:40;;;;;;;9.63;5.97;;;13.80;99.90;;;;;;4931594;29;20480;-82
2022/09/04 05:46:42;;;;;;;9.57;5.80;;;13.90;99.90;;;;;;4939080;29;20209;-81
2022/09/04 05:49:34;;;;;;;6.60;5.05;;;14.10;99.90;;;;;;4932797;29;20213;-82
2022/09/04 05:52:19;;;;;;;9.93;5.75;;;14.00;99.90;;;;;;4935545;29;20196;-82
2022/09/04 05:55:15;;;;;;;5.63;5.13;;;13.80;99.90;;;;;;4945054;29;20266;-80
2022/09/04 05:58:09;;;;;;;6.72;6.05;;;13.90;99.90;;;;;;4926532;29;20289;-82
2022/09/04 06:01:01;;;;;;;9.00;6.60;;;14.10;99.90;;;;;;4925555;29;20213;-78
2022/09/04 06:03:38;;;;;;;6.93;6.15;;;14.10;99.90;;;;;;4920650;29;20209;-81
2022/09/04 06:06:29;;;;;;;5.57;4.97;;;14.40;99.90;;;;;;4919188;29;20209;-79
2022/09/04 06:09:31;;;;;;;6.57;5.88;;;14.50;99.90;;;;;;4927405;29;20273;-80
2022/09/04 06:11:58;;;;;;;7.50;5.70;;;14.90;99.90;;;;;;4922991;29;20206;-81
2022/09/04 06:14:37;;;;;;;7.67;6.13;;;15.30;99.90;;;;;;4933715;29;20449;-80
2022/09/04 06:17:33;;;;;;;9.00;6.63;;;15.30;99.90;;;;;;4921561;29;20463;-80
2022/09/04 06:20:18;;;;;;;7.47;6.33;;;15.00;99.90;;;;;;4913052;29;20447;-81
2022/09/04 06:22:58;;;;;;;9.50;6.13;;;15.00;99.90;;;;;;4923447;29;20834;-80
2022/09/04 06:26:00;;;;;;;10.45;6.88;;;15.00;99.90;;;;;;4930522;29;20496;-85
2022/09/04 06:28:33;;;;;;;6.07;5.57;;;14.80;99.90;;;;;;4927921;29;20295;-82
2022/09/04 06:31:00;;;;;;;6.37;5.40;;;14.70;99.90;;;;;;4927820;29;20205;-80
2022/09/04 06:34:04;;;;;;;7.30;5.60;;;14.90;99.90;;;;;;4929822;29;20450;-82
2022/09/04 06:36:44;;;;;;;6.18;5.50;;;14.70;99.90;;;;;;4942084;29;20496;-80
2022/09/04 06:39:24;;;;;;;8.23;5.57;;;14.70;99.90;;;;;;4927181;29;20219;-80
2022/09/04 06:42:15;;;;;;;9.35;6.18;;;14.80;99.90;;;;;;4935694;29;20433;-79
2022/09/04 06:44:57;;;;;;;5.53;5.03;;;14.80;99.90;;;;;;4928841;29;20206;-78
2022/09/04 06:48:02;;;;;;;6.03;5.28;;;15.00;99.90;;;;;;4931759;29;20215;-80
2022/09/04 06:50:50;;;;;;;6.23;5.00;;;14.80;99.90;;;;;;4929017;29;20400;-81
2022/09/04 06:54:07;;;;;;;5.83;5.23;;;15.10;99.90;;;;;;4926325;29;20624;-81
2022/09/04 06:57:04;;;;;;;5.93;5.23;;;15.20;99.90;;;;;;4929752;29;20471;-82
2022/09/04 07:00:07;;;;;;;5.77;5.17;;;15.40;99.90;;;;;;4916346;29;20739;-82
2022/09/04 07:02:43;;;;;;;5.63;5.13;;;15.70;99.90;;;;;;4929852;29;20438;-81
2022/09/04 07:05:25;;;;;;;5.97;5.40;;;15.70;99.90;;;;;;4906101;29;20503;-82
2022/09/04 07:08:31;;;;;;;6.43;5.83;;;16.20;99.90;;;;;;4930639;29;20527;-83
2022/09/04 07:11:16;;;;;;;9.07;5.47;;;16.30;99.90;;;;;;4933885;29;20442;-81
2022/09/04 07:13:56;;;;;;;6.50;5.60;;;16.20;99.90;;;;;;4915097;29;20431;-80
2022/09/04 07:16:43;;;;;;;6.63;5.67;;;16.40;99.90;;;;;;4932548;29;20565;-80
2022/09/04 07:19:26;;;;;;;5.57;4.80;;;16.50;99.90;;;;;;4934070;29;20646;-83
2022/09/04 07:22:30;;;;;;;7.10;5.90;;;16.50;99.90;;;;;;4930253;29;20789;-82
2022/09/04 07:25:16;;;;;;;8.73;6.70;;;16.80;99.90;;;;;;4924139;29;20446;-82
2022/09/04 07:28:05;;;;;;;7.60;5.50;;;18.00;99.90;;;;;;4930445;29;20448;-79
2022/09/04 07:30:45;;;;;;;7.73;5.90;;;18.70;99.90;;;;;;4927124;29;20771;-83
2022/09/04 07:33:23;;;;;;;6.37;5.73;;;19.90;99.90;;;;;;4918183;29;20747;-81
2022/09/04 07:36:07;;;;;;;10.80;5.57;;;20.70;99.90;;;;;;4900167;29;20451;-81
2022/09/04 07:38:42;;;;;;;7.53;6.33;;;21.30;99.90;;;;;;4923155;29;20492;-82
2022/09/04 07:41:40;;;;;;;5.93;4.93;;;23.00;99.90;;;;;;4918758;29;20463;-87
2022/09/04 07:44:26;;;;;;;6.17;5.57;;;25.00;99.90;;;;;;4929320;29;20430;-83
2022/09/04 07:47:13;;;;;;;6.40;5.30;;;25.20;99.90;;;;;;4927205;29;20413;-81
2022/09/04 07:49:51;;;;;;;4.93;4.43;;;26.30;99.90;;;;;;4920644;29;20991;-82
2022/09/04 07:52:33;;;;;;;6.57;5.67;;;25.60;99.90;;;;;;4928620;29;20420;-83
2022/09/04 07:55:40;;;;;;;5.27;4.83;;;26.40;99.90;;;;;;4929676;29;20442;-82
2022/09/04 07:58:23;;;;;;;5.47;4.97;;;25.50;99.90;;;;;;4910606;29;20492;-82
2022/09/04 08:01:11;;;;;;;6.20;4.93;;;25.40;99.90;;;;;;4932431;29;20437;-83
2022/09/04 08:04:05;;;;;;;8.50;5.20;;;25.60;99.90;;;;;;4926473;29;20538;-81
2022/09/04 08:06:48;;;;;;;6.70;6.07;;;24.50;99.90;;;;;;4922213;29;20512;-84
2022/09/04 08:09:56;;;;;;;7.63;5.97;;;25.10;99.90;;;;;;4911213;29;20436;-81
2022/09/04 08:13:17;;;;;;;6.00;5.00;;;24.50;99.90;;;;;;4925732;29;20530;-81
2022/09/04 08:16:05;;;;;;;6.40;5.40;;;24.90;99.90;;;;;;4880549;29;20424;-84
2022/09/04 08:18:52;;;;;;;5.80;5.30;;;24.80;99.90;;;;;;4881491;29;20467;-82
2022/09/04 08:21:28;;;;;;;5.87;5.37;;;24.20;99.90;;;;;;4923346;29;20456;-83
2022/09/04 08:24:10;;;;;;;6.77;6.00;;;23.80;99.90;;;;;;4932045;29;20435;-82
2022/09/04 08:27:02;;;;;;;7.10;6.20;;;25.40;99.90;;;;;;4931283;29;20845;-82
2022/09/04 08:30:05;;;;;;;5.83;5.33;;;26.70;99.90;;;;;;4922324;29;20787;-85
2022/09/04 08:32:52;;;;;;;6.43;5.63;;;29.50;95.70;;;;;;4930707;29;20452;-80
2022/09/04 08:35:33;;;;;;;5.50;5.00;;;28.50;95.50;;;;;;4922224;29;20506;-82
2022/09/04 08:38:30;;;;;;;6.93;5.50;;;29.50;93.10;;;;;;4924803;29;20494;-83
2022/09/04 08:41:35;;;;;;;6.83;5.93;;;27.30;96.90;;;;;;4928012;29;20446;-83
2022/09/04 08:44:25;;;;;;;4.90;4.50;;;27.60;97.30;;;;;;4924337;29;20495;-86
2022/09/04 08:47:06;;;;;;;8.60;5.10;;;26.20;99.40;;;;;;4920654;29;20445;-83
2022/09/04 08:49:57;;;;;;;4.90;4.50;;;26.40;99.40;;;;;;4927896;29;20512;-84
2022/09/04 08:52:59;;;;;;;6.60;5.50;;;27.40;98.60;;;;;;4922214;29;20427;-80
2022/09/04 08:56:08;;;;;;;5.60;5.10;;;30.00;93.40;;;;;;4929445;29;20455;-81
2022/09/04 08:58:48;;;;;;;5.50;5.00;;;29.90;92.40;;;;;;4927796;29;20454;-80
2022/09/04 09:01:23;;;;;;;7.07;4.93;;;30.20;90.60;;;;;;4932505;29;20427;-83
2022/09/04 09:04:19;;;;;;;5.60;5.10;;;30.30;91.40;;;;;;4930877;29;20530;-82
2022/09/04 09:07:21;;;;;;;6.00;4.83;;;30.10;91.10;;;;;;4932460;29;20621;-83
2022/09/04 09:10:15;;;;;;;5.67;5.17;;;31.50;88.80;;;;;;4928206;29;20452;-81
2022/09/04 09:13:15;;;;;;;5.60;5.13;;;30.70;87.70;;;;;;4938070;29;20466;-85
2022/09/04 09:16:03;;;;;;;6.03;5.43;;;28.30;92.50;;;;;;4922889;29;20762;-85
2022/09/04 09:18:55;;;;;;;5.80;5.20;;;28.70;93.10;;;;;;4929277;29;20482;-86
2022/09/04 09:21:44;;;;;;;5.63;5.13;;;29.40;91.80;;;;;;4929715;29;20429;-81
2022/09/04 09:24:45;;;;;;;6.87;5.27;;;28.30;93.50;;;;;;4934137;29;20419;-80
2022/09/04 09:27:28;;;;;;;5.00;4.60;;;26.00;98.20;;;;;;4939620;29;20482;-80
2022/09/04 09:30:11;;;;;;;5.30;4.80;;;24.10;99.90;;;;;;4935130;29;20846;-82
2022/09/04 09:32:57;;;;;;;5.73;5.23;;;23.20;99.90;;;;;;4922689;29;21071;-84
2022/09/04 09:35:54;;;;;;;5.20;4.70;;;22.90;99.90;;;;;;4926209;29;20446;-82
2022/09/04 09:38:35;;;;;;;5.03;4.57;;;23.10;99.90;;;;;;4934101;29;20484;-84
2022/09/04 09:41:23;;;;;;;6.97;5.30;;;23.30;99.90;;;;;;4923978;29;20402;-83
2022/09/04 09:44:14;;;;;;;5.40;5.00;;;23.10;99.90;;;;;;4919350;29;20421;-84
2022/09/04 09:46:44;;;;;;;5.70;5.17;;;22.30;99.90;;;;;;4920969;29;20451;-84
2022/09/04 09:49:38;;;;;;;5.77;5.27;;;22.30;99.90;;;;;;4927036;29;20436;-84
2022/09/04 09:52:27;;;;;;;5.13;4.63;;;22.20;99.90;;;;;;4924252;29;20463;-82
2022/09/04 09:55:18;;;;;;;5.37;4.20;;;21.50;99.90;;;;;;4925215;29;20435;-80
2022/09/04 09:57:45;;;;;;;5.37;4.97;;;21.60;99.90;;;;;;4937820;29;20469;-80
2022/09/04 10:00:17;;;;;;;5.30;4.70;;;21.10;99.90;;;;;;4940746;29;20460;-81
2022/09/04 10:03:06;;;;;;;5.43;4.87;;;20.90;99.90;;;;;;4922718;29;20439;-82
2022/09/04 10:06:11;;;;;;;4.67;3.90;;;21.10;99.90;;;;;;4926267;29;20455;-84
2022/09/04 10:09:06;;;;;;;4.50;4.10;;;20.80;99.90;;;;;;4934640;29;20412;-82
2022/09/04 10:12:01;;;;;;;5.20;4.80;;;21.00;99.90;;;;;;4913481;29;20410;-80
2022/09/04 10:15:02;;;;;;;5.20;4.20;;;20.90;99.90;;;;;;4939443;29;20477;-81
2022/09/04 10:17:50;;;;;;;6.03;4.27;;;21.20;99.90;;;;;;4939479;29;20457;-84
2022/09/04 10:20:20;;;;;;;3.77;3.47;;;21.20;99.90;;;;;;4947390;29;20460;-85
2022/09/04 10:23:04;;;;;;;4.50;4.13;;;20.70;99.90;;;;;;4939358;29;20486;-82
2022/09/04 10:25:55;;;;;;;5.03;4.63;;;20.50;99.90;;;;;;4928266;29;20484;-82
2022/09/04 10:28:56;;;;;;;4.40;4.00;;;20.60;99.90;;;;;;4945660;29;20419;-80
2022/09/04 10:32:50;;;;;;;5.70;4.93;;;20.70;99.90;;;;;;5055914;23;20474;-82
2022/09/04 11:00:39;;;;;;;4.57;4.17;;;21.60;99.90;;;;;;5680788;23;21882;-83
2022/09/04 11:06:25;;;;;;;4.50;4.10;;;21.40;99.90;;;;;;5165346;23;20526;-87
2022/09/04 11:14:56;;;;;;;5.67;3.47;;;21.50;99.90;;;;;;5729549;23;20463;-88
2022/09/04 11:22:03;;;;;;;5.40;4.50;;;21.60;99.90;;;;;;5699063;23;20496;-82
2022/09/04 11:28:42;;;;;;;5.20;4.70;;;21.40;99.90;;;;;;5348551;23;20489;-85
2022/09/04 11:31:54;;;;;;;4.77;4.37;;;21.30;99.90;;;;;;5401636;23;20467;-86
2022/09/04 11:37:50;;;;;;;5.00;3.90;;;21.50;99.90;;;;;;5640082;23;20479;-84
2022/09/04 11:41:10;;;;;;;4.80;4.40;;;21.80;99.90;;;;;;4933069;28;20487;-86
2022/09/04 11:44:18;;;;;;;7.60;4.57;;;21.70;99.90;;;;;;4934454;29;20437;-82
2022/09/04 11:47:27;;;;;;;4.87;4.47;;;21.60;99.90;;;;;;4974437;28;20511;-81
2022/09/04 12:09:42;;;;;;;4.40;4.00;;;22.20;99.90;;;;;;5603310;23;20456;-84
2022/09/04 12:12:21;;;;;;;4.93;3.93;;;22.30;99.90;;;;;;4931565;29;20425;-86
2022/09/04 12:15:24;;;;;;;6.33;3.63;;;22.40;99.90;;;;;;4926019;29;20477;-79
2022/09/04 12:18:19;;;;;;;4.33;3.90;;;22.30;99.90;;;;;;4932153;29;20423;-82
2022/09/04 12:21:20;;;;;;;3.90;3.60;;;22.20;99.90;;;;;;4933367;29;20514;-84
2022/09/04 12:24:18;;;;;;;8.80;4.77;;;22.20;99.90;;;;;;4928919;29;20435;-83
2022/09/04 12:27:03;;;;;;;5.63;4.60;;;22.40;99.90;;;;;;4930348;29;20511;-80
2022/09/04 12:29:39;;;;;;;3.03;2.80;;;22.20;99.90;;;;;;4923936;29;20516;-79
2022/09/04 12:32:36;;;;;;;5.07;4.47;;;22.20;99.90;;;;;;4926183;29;20441;-82
2022/09/04 12:35:41;;;;;;;3.97;3.67;;;22.10;99.90;;;;;;4924436;29;20446;-85
2022/09/04 12:38:40;;;;;;;3.53;3.23;;;22.30;99.90;;;;;;4922449;29;20872;-82
2022/09/04 12:41:17;;;;;;;3.57;3.27;;;22.30;99.90;;;;;;4933096;29;20425;-81
2022/09/04 12:43:56;;;;;;;3.93;3.50;;;22.60;99.90;;;;;;4936483;29;20429;-80
2022/09/04 12:47:03;;;;;;;3.57;3.27;;;22.40;99.90;;;;;;4934258;29;20452;-81
2022/09/04 12:49:52;;;;;;;3.97;3.67;;;22.30;99.90;;;;;;4937246;29;20429;-79
2022/09/04 12:52:45;;;;;;;3.60;3.10;;;22.60;99.90;;;;;;4940656;29;20422;-81
2022/09/04 12:55:30;;;;;;;4.43;3.83;;;23.10;99.90;;;;;;4935304;29;20417;-80
2022/09/04 12:58:30;;;;;;;3.17;2.87;;;23.20;99.90;;;;;;4928836;29;20442;-81
2022/09/04 13:01:38;;;;;;;4.37;3.97;;;23.70;99.90;;;;;;4933093;29;20756;-80
2022/09/04 13:04:18;;;;;;;2.60;2.33;;;23.30;99.90;;;;;;4929654;29;20426;-82
2022/09/04 13:07:05;;;;;;;3.00;2.80;;;23.00;99.90;;;;;;4928286;29;20767;-83
2022/09/04 13:09:58;;;;;;;3.37;2.73;;;22.80;99.90;;;;;;4923218;29;20465;-84
2022/09/04 13:13:04;;;;;;;3.60;2.70;;;22.80;99.90;;;;;;4927529;29;20458;-83
2022/09/04 13:15:49;;;;;;;3.03;2.73;;;22.70;99.90;;;;;;4921899;29;20414;-83
2022/09/04 13:18:35;;;;;;;3.03;2.83;;;22.70;99.90;;;;;;4917940;29;20457;-81
2022/09/04 13:21:18;;;;;;;2.83;2.63;;;22.80;99.90;;;;;;4918911;29;20558;-85
2022/09/04 13:24:03;;;;;;;2.73;2.53;;;22.80;99.90;;;;;;4917314;29;20436;-84
2022/09/04 13:26:41;;;;;;;2.40;2.20;;;22.90;99.90;;;;;;4926362;29;20436;-85
2022/09/04 13:29:45;;;;;;;2.70;2.50;;;22.70;99.90;;;;;;4920214;29;20421;-80
2022/09/04 13:32:43;;;;;;;3.00;2.80;;;22.80;99.90;;;;;;4916270;29;20422;-83
2022/09/04 13:35:16;;;;;;;7.07;2.80;;;22.80;99.90;;;;;;4924579;29;20455;-83
2022/09/04 13:38:09;;;;;;;2.50;2.30;;;23.00;99.90;;;;;;4913980;29;20431;-83
2022/09/04 13:40:43;;;;;;;3.17;2.83;;;23.00;99.90;;;;;;4921435;29;20450;-86
2022/09/04 13:43:17;;;;;;;2.63;2.43;;;22.90;99.90;;;;;;4916607;29;20443;-83
2022/09/04 13:45:52;;;;;;;4.27;2.80;;;22.70;99.90;;;;;;4917697;29;20398;-87
2022/09/04 13:48:36;;;;;;;3.67;2.63;;;22.50;99.90;;;;;;4920685;29;20430;-84
2022/09/04 13:51:31;;;;;;;2.87;2.63;;;22.70;99.90;;;;;;4919807;29;20590;-87
2022/09/04 13:54:24;;;;;;;2.87;2.60;;;22.90;99.90;;;;;;4919154;29;20824;-89
2022/09/04 13:57:04;;;;;;;4.40;2.73;;;22.90;99.90;;;;;;4924479;29;20493;-85
2022/09/04 13:59:31;;;;;;;3.00;2.43;;;22.80;99.90;;;;;;4924209;29;20445;-82
2022/09/04 14:02:07;;;;;;;2.10;2.00;;;22.80;99.90;;;;;;4926119;29;20551;-87
2022/09/04 14:04:39;;;;;;;3.70;2.00;;;22.80;99.90;;;;;;4914190;29;20425;-89
2022/09/04 14:07:17;;;;;;;2.43;2.23;;;22.70;99.90;;;;;;4916022;29;20502;-86
2022/09/04 14:09:49;;;;;;;2.70;2.50;;;22.80;99.90;;;;;;4868175;29;1508425;-87
2022/09/04 14:12:38;;;;;;;2.00;1.83;;;22.60;99.90;;;;;;4924772;29;20215;-85
2022/09/04 14:15:38;;;;;;;2.30;2.20;;;22.60;99.90;;;;;;4918480;29;20960;-83
2022/09/04 14:18:45;;;;;;;3.30;2.30;;;22.30;99.90;;;;;;4911708;29;20434;-86
2022/09/04 14:21:24;;;;;;;2.77;2.47;;;22.30;99.90;;;;;;4906475;29;20505;-85
2022/09/04 14:24:04;;;;;;;2.30;2.10;;;22.20;99.90;;;;;;4923243;29;20457;-86
2022/09/04 14:27:11;;;;;;;2.00;1.80;;;22.30;99.90;;;;;;4940913;29;20913;-84
2022/09/04 14:29:48;;;;;;;2.13;2.03;;;22.30;99.90;;;;;;4924619;29;20414;-87
2022/09/04 14:32:31;;;;;;;1.93;1.80;;;22.30;99.90;;;;;;4929788;29;20452;-84
2022/09/04 14:35:20;;;;;;;3.03;2.30;;;22.40;99.90;;;;;;4915147;29;20779;-85
2022/09/04 14:38:00;;;;;;;3.50;2.83;;;22.40;99.90;;;;;;4912370;29;20418;-81
2022/09/04 14:40:36;;;;;;;2.73;2.40;;;22.30;99.90;;;;;;4912443;29;20446;-86
2022/09/04 14:43:34;;;;;;;2.90;2.17;;;22.50;99.90;;;;;;4909583;29;20416;-84
2022/09/04 14:46:20;;;;;;;2.77;2.53;;;22.70;99.90;;;;;;4911314;29;20812;-86
2022/09/04 14:49:03;;;;;;;3.70;2.43;;;22.90;99.90;;;;;;4921409;29;20483;-85
2022/09/04 14:51:45;;;;;;;3.17;2.23;;;23.00;99.90;;;;;;4925299;29;20535;-86
2022/09/04 14:54:24;;;;;;;2.57;2.37;;;23.30;99.90;;;;;;4918715;29;20426;-88
2022/09/04 14:56:56;;;;;;;3.73;2.30;;;23.20;99.90;;;;;;4925185;29;20443;-87
2022/09/04 14:59:37;;;;;;;2.97;2.70;;;23.10;99.90;;;;;;4922396;29;20465;-80
2022/09/04 15:02:07;;;;;;;2.40;2.20;;;23.20;99.90;;;;;;4926365;29;20413;-85
2022/09/04 15:05:02;;;;;;;2.90;2.40;;;23.10;99.90;;;;;;4932444;29;20436;-83
2022/09/04 15:07:40;;;;;;;4.40;2.90;;;23.00;99.90;;;;;;4926543;29;20496;-85
2022/09/04 15:10:31;;;;;;;2.40;1.90;;;23.00;99.90;;;;;;4922688;29;20489;-83
2022/09/04 15:13:23;;;;;;;3.83;3.00;;;23.00;99.90;;;;;;4924781;29;20846;-86
2022/09/04 15:16:01;;;;;;;2.80;2.60;;;22.90;99.90;;;;;;4919857;29;20417;-87
2022/09/04 15:18:40;;;;;;;2.47;2.27;;;22.90;99.90;;;;;;4919731;29;20433;-87
2022/09/04 15:21:13;;;;;;;2.80;2.60;;;22.80;99.90;;;;;;4914876;29;20532;-81
2022/09/04 15:23:49;;;;;;;2.50;2.30;;;22.80;99.90;;;;;;4916516;29;20815;-83
2022/09/04 15:26:29;;;;;;;2.73;2.27;;;22.70;99.90;;;;;;4914177;29;20449;-82
2022/09/04 15:29:35;;;;;;;3.13;2.93;;;22.90;99.90;;;;;;4921865;29;20683;-83
2022/09/04 15:32:07;;;;;;;2.90;2.47;;;22.80;99.90;;;;;;4897558;29;20452;-85
2022/09/04 15:34:42;;;;;;;2.43;2.23;;;22.80;99.90;;;;;;4914683;29;20429;-83
2022/09/04 15:37:25;;;;;;;3.30;2.47;;;22.70;99.90;;;;;;4910956;29;20501;-85